Time;durP1;ratioP1;P1;durP2;ratioP2;P2;SDS_P1;SDS_P2;PMS_P1;PMS_P2;Temp;Humidity;BMP_temperature;BMP_pressure;BME280_temperature;BME280_humidity;BME280_pressure;Samples;Min_cycle;Max_cycle;Signal;HPM_P1;HPM_P2
2021/08/17 00:00:19;;;;;;;4.32;2.53;;;;;;;25.67;63.12;99844.38;4960504;28;20097;-73
2021/08/17 00:02:44;;;;;;;4.60;2.58;;;;;;;25.87;62.80;99841.88;4960942;28;20038;-73
2021/08/17 00:05:11;;;;;;;4.20;2.65;;;;;;;25.89;63.68;99841.38;4960354;28;20116;-74
2021/08/17 00:07:36;;;;;;;4.65;2.90;;;;;;;25.68;63.87;99835.38;4960904;28;20054;-74
2021/08/17 00:10:03;;;;;;;4.03;2.78;;;;;;;25.65;63.46;99839.16;4959989;28;20466;-74
2021/08/17 00:12:29;;;;;;;3.28;3.00;;;;;;;25.66;63.89;99837.09;4960268;28;20496;-74
2021/08/17 00:14:55;;;;;;;4.55;3.38;;;;;;;25.66;63.18;99834.25;4959769;28;20053;-73
2021/08/17 00:17:24;;;;;;;8.35;2.58;;;;;;;25.68;62.99;99831.72;4960124;28;20027;-74
2021/08/17 00:19:52;;;;;;;6.28;3.20;;;;;;;25.68;62.86;99823.19;4960679;28;20042;-74
2021/08/17 00:22:22;;;;;;;4.30;2.47;;;;;;;25.59;62.44;99810.50;4960460;28;20117;-74
2021/08/17 00:24:48;;;;;;;3.63;2.63;;;;;;;25.75;61.94;99837.13;4960799;28;20537;-75
2021/08/17 00:27:16;;;;;;;3.67;2.42;;;;;;;25.90;60.12;99837.28;4960006;28;20058;-74
2021/08/17 00:29:42;;;;;;;4.20;2.53;;;;;;;25.63;61.07;99832.38;4959839;28;20041;-75
2021/08/17 00:32:08;;;;;;;3.60;2.25;;;;;;;25.69;60.42;99831.25;4960743;28;20035;-74
2021/08/17 00:34:36;;;;;;;3.60;2.13;;;;;;;25.48;61.16;99827.28;4960179;28;20387;-74
2021/08/17 00:37:04;;;;;;;5.70;2.38;;;;;;;25.55;61.00;99826.97;4959854;28;20125;-74
2021/08/17 00:39:31;;;;;;;4.53;2.60;;;;;;;25.60;60.90;99814.94;4959957;28;20371;-74
2021/08/17 00:41:57;;;;;;;2.22;2.03;;;;;;;25.66;60.02;99822.84;4959798;28;20027;-75
2021/08/17 00:44:27;;;;;;;4.25;2.35;;;;;;;25.60;58.69;99823.47;4959742;28;20035;-74
2021/08/17 00:46:54;;;;;;;5.85;2.58;;;;;;;25.58;57.63;99817.47;4960508;28;20038;-75
2021/08/17 00:49:20;;;;;;;4.28;2.33;;;;;;;25.62;57.72;99817.34;4959984;28;20544;-74
2021/08/17 00:51:46;;;;;;;2.42;2.20;;;;;;;25.74;57.21;99821.28;4959871;28;20031;-75
2021/08/17 00:54:12;;;;;;;3.25;2.08;;;;;;;25.66;58.01;99817.94;4959786;28;20413;-74
2021/08/17 00:56:38;;;;;;;3.88;2.70;;;;;;;25.66;58.74;99809.41;4959569;28;20030;-74
2021/08/17 00:59:05;;;;;;;3.97;2.55;;;;;;;25.70;58.95;99809.25;4959686;28;20041;-74
2021/08/17 01:01:34;;;;;;;3.78;2.33;;;;;;;25.71;59.02;99807.97;4959107;28;20030;-74
2021/08/17 01:04:01;;;;;;;4.20;2.25;;;;;;;25.59;54.81;99810.50;4958655;28;20037;-74
2021/08/17 01:06:31;;;;;;;2.38;2.17;;;;;;;25.59;55.59;99813.38;4959261;28;20029;-74
2021/08/17 01:08:57;;;;;;;2.28;2.08;;;;;;;25.60;55.65;99809.25;4976967;28;20066;-75
2021/08/17 01:11:25;;;;;;;3.88;2.33;;;;;;;25.61;56.18;99810.81;4959498;28;20058;-74
2021/08/17 01:13:51;;;;;;;4.13;2.05;;;;;;;25.67;55.90;99807.34;4959473;28;20053;-74
2021/08/17 01:16:20;;;;;;;2.75;1.90;;;;;;;25.66;56.46;99808.59;4942897;28;20058;-75
2021/08/17 01:18:46;;;;;;;3.17;2.05;;;;;;;25.69;56.68;99802.75;4959213;28;20030;-75
2021/08/17 01:21:12;;;;;;;2.20;1.85;;;;;;;25.63;56.70;99803.88;4959748;28;20037;-75
2021/08/17 01:23:38;;;;;;;3.25;2.53;;;;;;;25.78;56.43;99807.66;4959375;28;20386;-75
2021/08/17 01:26:05;;;;;;;2.50;2.00;;;;;;;25.73;56.60;99803.41;4959852;28;20121;-75
2021/08/17 01:28:30;;;;;;;4.75;2.30;;;;;;;25.66;56.94;99798.00;4958991;28;20037;-74
2021/08/17 01:31:01;;;;;;;7.45;2.78;;;;;;;25.71;57.12;99799.41;4959430;28;20031;-75
2021/08/17 01:33:26;;;;;;;3.28;1.92;;;;;;;25.81;57.17;99798.19;4959213;28;20027;-74
2021/08/17 01:35:52;;;;;;;3.42;2.38;;;;;;;25.67;58.28;99798.78;4959414;28;20041;-74
2021/08/17 01:38:18;;;;;;;1.98;1.88;;;;;;;25.58;58.23;99803.25;4959210;28;20466;-74
2021/08/17 01:40:43;;;;;;;3.22;2.13;;;;;;;25.56;58.18;99799.28;4958753;28;20375;-74
2021/08/17 01:43:12;;;;;;;8.18;2.35;;;;;;;25.66;57.72;99800.06;4958759;28;20041;-75
2021/08/17 01:45:38;;;;;;;3.40;2.42;;;;;;;25.47;58.68;99793.59;4959232;28;20039;-74
2021/08/17 01:48:05;;;;;;;2.67;2.22;;;;;;;25.43;58.71;99790.91;4958717;28;20396;-74
2021/08/17 01:50:32;;;;;;;2.88;2.10;;;;;;;25.43;59.26;99801.50;4958295;28;20041;-74
2021/08/17 01:52:57;;;;;;;4.78;2.10;;;;;;;25.40;59.20;99806.06;4958643;28;20029;-74
2021/08/17 01:55:23;;;;;;;3.20;2.30;;;;;;;25.38;59.56;99800.06;4959032;28;20035;-74
2021/08/17 01:57:49;;;;;;;4.47;2.30;;;;;;;25.29;59.40;99797.22;4959345;28;20039;-74
2021/08/17 02:00:15;;;;;;;3.25;2.10;;;;;;;25.33;60.28;99803.53;4958342;28;20394;-74
2021/08/17 02:02:41;;;;;;;2.30;2.10;;;;;;;25.34;60.31;99794.53;4958394;28;20065;-74
2021/08/17 02:05:07;;;;;;;3.13;1.98;;;;;;;25.32;60.68;99791.38;4958343;28;20041;-74
2021/08/17 02:07:33;;;;;;;5.97;2.13;;;;;;;25.37;60.76;99795.66;4958739;28;20492;-74
2021/08/17 02:10:00;;;;;;;3.17;2.22;;;;;;;25.39;60.38;99798.81;4958192;28;20117;-74
2021/08/17 02:12:29;;;;;;;4.72;4.20;;;;;;;25.41;61.06;99799.13;4958474;28;20474;-74
2021/08/17 02:14:54;;;;;;;5.65;4.95;;;;;;;25.37;60.84;99792.78;4958018;28;20434;-74
2021/08/17 02:17:20;;;;;;;4.32;3.58;;;;;;;25.43;61.75;99788.03;4958460;28;20041;-74
2021/08/17 02:19:46;;;;;;;6.43;4.63;;;;;;;25.40;62.10;99786.13;4958132;28;20504;-74
2021/08/17 02:22:15;;;;;;;11.70;10.52;;;;;;;25.41;62.25;99793.44;4975020;28;20031;-74
2021/08/17 02:24:41;;;;;;;15.35;12.95;;;;;;;25.38;62.19;99785.84;4958052;28;20038;-74
2021/08/17 02:27:07;;;;;;;10.82;9.70;;;;;;;25.43;62.66;99790.91;4958131;28;20037;-73
2021/08/17 02:29:32;;;;;;;8.32;5.63;;;;;;;25.49;62.38;99789.00;4957758;28;20397;-74
2021/08/17 02:31:58;;;;;;;11.98;10.82;;;;;;;25.50;62.44;99793.41;4957756;28;20027;-74
2021/08/17 02:34:23;;;;;;;7.75;6.72;;;;;;;25.45;62.21;99782.66;4957745;28;20034;-74
2021/08/17 02:36:49;;;;;;;6.05;5.50;;;;;;;25.38;62.52;99774.44;4958294;28;20027;-74
2021/08/17 02:39:14;;;;;;;13.18;11.82;;;;;;;25.43;62.95;99782.34;4957706;28;20418;-74
2021/08/17 02:41:42;;;;;;;6.63;5.63;;;;;;;25.41;64.47;99787.75;4942208;28;20042;-74
2021/08/17 02:44:11;;;;;;;11.10;5.18;;;;;;;25.34;65.09;99774.59;4957763;28;20089;-74
2021/08/17 02:46:39;;;;;;;7.78;4.88;;;;;;;25.40;64.22;99780.44;4957987;28;20054;-74
2021/08/17 02:49:05;;;;;;;5.55;3.40;;;;;;;25.39;65.22;99767.47;4958245;28;20053;-74
2021/08/17 02:51:33;;;;;;;5.47;3.72;;;;;;;25.36;65.24;99762.75;4957780;28;20549;-74
2021/08/17 02:53:59;;;;;;;4.25;2.90;;;;;;;25.39;65.16;99770.31;4957891;28;20122;-74
2021/08/17 02:56:24;;;;;;;3.88;2.90;;;;;;;25.40;64.99;99756.88;4957360;28;20133;-74
2021/08/17 02:58:50;;;;;;;5.78;3.20;;;;;;;25.43;64.66;99756.72;4958159;28;20057;-74
2021/08/17 03:01:15;;;;;;;3.42;2.80;;;;;;;25.38;65.40;99757.34;4957868;28;20045;-74
2021/08/17 03:03:41;;;;;;;5.05;2.95;;;;;;;25.42;65.55;99754.34;4958075;28;20042;-74
2021/08/17 03:06:06;;;;;;;4.05;2.90;;;;;;;25.47;65.57;99751.66;4957810;28;20026;-74
2021/08/17 03:08:32;;;;;;;4.70;2.80;;;;;;;25.44;65.63;99746.91;4958012;28;20454;-74
2021/08/17 03:11:00;;;;;;;4.78;2.72;;;;;;;25.43;66.41;99751.03;4957351;28;20372;-74
2021/08/17 03:13:25;;;;;;;5.03;3.38;;;;;;;25.44;66.31;99744.06;4957679;28;20509;-74
2021/08/17 03:15:51;;;;;;;5.10;2.95;;;;;;;25.47;66.20;99740.28;4957086;28;20050;-74
2021/08/17 03:18:16;;;;;;;3.50;2.72;;;;;;;25.46;66.55;99743.56;4957952;28;20035;-74
2021/08/17 03:20:42;;;;;;;4.35;2.40;;;;;;;25.45;66.37;99739.94;4974683;28;20117;-74
2021/08/17 03:23:13;;;;;;;5.22;3.47;;;;;;;25.47;66.69;99748.03;4957324;28;20482;-74
2021/08/17 03:25:39;;;;;;;5.22;3.15;;;;;;;25.42;66.90;99743.75;4958621;28;20034;-74
2021/08/17 03:28:05;;;;;;;3.33;2.95;;;;;;;25.48;66.30;99741.84;4961243;28;20030;-74
2021/08/17 03:30:30;;;;;;;3.97;2.97;;;;;;;25.46;66.74;99733.00;4961117;28;20128;-74
2021/08/17 03:32:56;;;;;;;4.30;3.03;;;;;;;25.44;66.99;99729.81;4961102;28;20027;-74
2021/08/17 03:35:22;;;;;;;4.43;4.00;;;;;;;25.43;66.74;99728.25;4961050;28;20039;-74
2021/08/17 03:37:47;;;;;;;7.78;5.28;;;;;;;25.39;67.48;99746.75;4961031;28;20026;-74
2021/08/17 03:40:19;;;;;;;5.95;4.43;;;;;;;25.35;67.47;99738.34;4961235;28;20042;-74
2021/08/17 03:42:45;;;;;;;9.18;5.82;;;;;;;25.46;67.80;99735.84;4961597;28;20462;-75
2021/08/17 03:45:14;;;;;;;6.70;5.32;;;;;;;25.40;68.16;99743.41;4961036;28;20045;-75
2021/08/17 03:47:39;;;;;;;7.75;5.40;;;;;;;25.45;68.76;99745.63;4960948;28;20566;-75
2021/08/17 03:50:07;;;;;;;7.82;3.72;;;;;;;25.37;69.98;99747.25;4960944;28;20125;-74
2021/08/17 03:52:33;;;;;;;3.28;2.97;;;;;;;25.35;69.56;99749.75;4960841;28;20382;-74
2021/08/17 03:54:59;;;;;;;8.02;6.38;;;;;;;25.46;69.22;99743.56;4960998;28;20488;-74
2021/08/17 03:57:24;;;;;;;6.75;6.07;;;;;;;25.44;68.88;99741.22;4960738;28;20118;-74
2021/08/17 03:59:50;;;;;;;5.35;4.85;;;;;;;25.39;68.87;99744.69;4960951;28;20039;-75
2021/08/17 04:02:16;;;;;;;11.18;10.07;;;;;;;25.37;68.76;99744.38;4960912;28;20474;-75
2021/08/17 04:04:41;;;;;;;12.80;9.68;;;;;;;25.32;68.99;99742.19;4960579;28;20393;-75
2021/08/17 04:07:09;;;;;;;8.65;6.22;;;;;;;25.28;68.98;99738.69;4961120;28;20030;-75
2021/08/17 04:09:35;;;;;;;9.73;3.92;;;;;;;25.40;68.99;99745.47;4960654;28;20031;-75
2021/08/17 04:12:00;;;;;;;5.88;3.17;;;;;;;25.40;69.22;99734.09;4961006;28;20457;-75
2021/08/17 04:14:28;;;;;;;10.77;3.70;;;;;;;25.40;69.41;99739.78;4960441;28;20397;-75
2021/08/17 04:16:57;;;;;;;7.38;3.47;;;;;;;25.43;68.83;99733.94;4960874;28;20371;-74
2021/08/17 04:19:29;;;;;;;5.18;3.67;;;;;;;25.45;69.42;99742.78;4960558;28;20466;-74
2021/08/17 04:21:54;;;;;;;8.75;3.83;;;;;;;25.47;68.96;99740.28;4960988;28;20088;-74
2021/08/17 04:24:20;;;;;;;5.47;4.30;;;;;;;25.51;69.02;99740.88;4960491;28;20121;-74
2021/08/17 04:26:46;;;;;;;6.55;3.50;;;;;;;25.59;69.21;99741.34;4960160;28;20462;-74
2021/08/17 04:29:12;;;;;;;6.03;3.42;;;;;;;25.54;69.03;99734.25;4959982;28;20042;-74
2021/08/17 04:31:40;;;;;;;7.13;3.22;;;;;;;25.49;69.62;99739.78;4959983;28;20027;-74
2021/08/17 04:34:08;;;;;;;5.97;3.05;;;;;;;25.52;69.43;99747.38;4960334;28;20043;-74
2021/08/17 04:36:37;;;;;;;5.22;2.78;;;;;;;25.59;68.97;99741.34;4959786;28;20027;-74
2021/08/17 04:39:03;;;;;;;9.02;3.47;;;;;;;25.75;68.57;99743.09;4960211;28;20126;-74
2021/08/17 04:41:28;;;;;;;4.40;3.28;;;;;;;25.94;67.53;99741.81;4960412;28;20055;-74
2021/08/17 04:43:54;;;;;;;9.93;3.83;;;;;;;26.02;67.54;99745.88;4960314;28;20394;-74
2021/08/17 04:46:20;;;;;;;4.85;2.63;;;;;;;26.37;66.51;99751.16;4960004;28;20038;-74
2021/08/17 04:48:45;;;;;;;3.58;3.28;;;;;;;26.41;66.43;99745.25;4959546;28;20457;-74
2021/08/17 04:51:11;;;;;;;8.10;3.40;;;;;;;26.41;66.49;99739.53;4959861;28;20030;-74
2021/08/17 04:53:38;;;;;;;4.40;3.20;;;;;;;26.57;65.84;99739.97;4959346;28;20080;-75
2021/08/17 04:56:04;;;;;;;10.45;3.47;;;;;;;26.70;65.48;99747.53;4977173;28;20430;-74
2021/08/17 04:58:30;;;;;;;4.07;3.45;;;;;;;26.78;65.04;99748.72;4959543;28;20118;-74
2021/08/17 05:00:55;;;;;;;5.95;3.50;;;;;;;26.99;64.45;99747.63;4959564;28;20117;-74
2021/08/17 05:03:23;;;;;;;5.93;3.78;;;;;;;27.01;64.09;99756.50;4959443;28;20035;-75
2021/08/17 05:05:48;;;;;;;4.57;3.88;;;;;;;26.99;64.61;99753.34;4959846;28;20027;-74
2021/08/17 05:08:14;;;;;;;6.82;4.38;;;;;;;27.21;64.19;99746.53;4959641;28;20113;-75
2021/08/17 05:10:40;;;;;;;10.57;3.95;;;;;;;27.55;62.50;99748.78;4959170;28;20062;-74
2021/08/17 05:13:06;;;;;;;7.15;3.45;;;;;;;28.04;61.20;99755.94;4959280;28;20091;-74
2021/08/17 05:15:35;;;;;;;10.15;4.43;;;;;;;28.26;60.64;99751.88;4958880;28;20116;-74
2021/08/17 05:18:02;;;;;;;5.28;3.25;;;;;;;28.76;58.04;99757.59;4959153;28;20046;-74
2021/08/17 05:20:28;;;;;;;6.97;3.58;;;;;;;29.18;56.96;99757.13;4976807;28;20033;-74
2021/08/17 05:22:54;;;;;;;4.22;2.97;;;;;;;29.58;56.23;99759.22;4959052;28;20023;-74
2021/08/17 05:25:23;;;;;;;10.27;4.72;;;;;;;29.92;55.78;99753.78;4959361;28;20121;-75
2021/08/17 05:27:53;;;;;;;5.22;3.50;;;;;;;30.34;54.24;99750.28;4959273;28;20378;-74
2021/08/17 05:30:20;;;;;;;10.13;3.13;;;;;;;30.76;53.02;99763.91;4975889;28;20031;-74
2021/08/17 05:32:46;;;;;;;7.03;4.28;;;;;;;31.00;52.25;99759.84;4958928;28;20030;-74
2021/08/17 05:35:12;;;;;;;4.25;3.00;;;;;;;31.17;51.28;99763.59;4958778;28;20027;-74
2021/08/17 05:37:38;;;;;;;5.78;4.20;;;;;;;31.54;50.16;99765.59;4958836;28;20114;-74
2021/08/17 05:40:06;;;;;;;9.70;4.78;;;;;;;31.78;49.94;99768.75;4959033;28;20027;-74
2021/08/17 05:42:32;;;;;;;6.70;3.35;;;;;;;31.83;50.07;99772.97;4976397;28;20073;-74
2021/08/17 05:44:58;;;;;;;8.48;4.80;;;;;;;32.15;48.42;99770.66;4958514;28;20034;-74
2021/08/17 05:47:23;;;;;;;9.57;3.97;;;;;;;31.94;49.72;99783.72;4959099;28;20027;-75
2021/08/17 05:49:49;;;;;;;5.22;3.90;;;;;;;31.83;50.23;99775.84;4957899;28;20027;-74
2021/08/17 05:52:15;;;;;;;8.00;3.90;;;;;;;31.66;50.37;99777.88;4958480;28;20022;-74
2021/08/17 05:54:41;;;;;;;9.15;3.83;;;;;;;31.55;50.93;99775.78;4958672;28;20035;-74
2021/08/17 05:57:07;;;;;;;5.88;3.70;;;;;;;31.00;52.08;99762.72;4958781;28;20054;-74
2021/08/17 05:59:37;;;;;;;5.15;3.38;;;;;;;31.57;50.94;99767.41;4958595;28;20049;-73
2021/08/17 06:02:04;;;;;;;7.32;4.47;;;;;;;30.61;53.23;99763.25;4976009;28;20027;-74
2021/08/17 06:04:29;;;;;;;6.07;4.38;;;;;;;30.73;53.31;99776.41;4958775;28;20086;-73
2021/08/17 06:06:55;;;;;;;7.43;4.30;;;;;;;30.58;52.60;99780.72;4958142;28;20474;-73
2021/08/17 06:09:21;;;;;;;8.02;3.38;;;;;;;30.46;52.68;99768.34;4958218;28;20038;-73
2021/08/17 06:11:48;;;;;;;6.55;3.80;;;;;;;30.10;53.25;99770.66;4958546;28;20038;-74
2021/08/17 06:14:14;;;;;;;8.45;4.40;;;;;;;30.30;52.90;99772.66;4958818;28;20418;-73
2021/08/17 06:16:41;;;;;;;5.82;4.10;;;;;;;31.07;51.57;99776.59;4958111;28;20133;-73
2021/08/17 06:19:08;;;;;;;7.70;3.55;;;;;;;30.80;51.20;99771.50;4958045;28;20027;-74
2021/08/17 06:21:35;;;;;;;5.97;4.20;;;;;;;30.71;51.79;99772.47;4957830;28;20034;-74
2021/08/17 06:24:02;;;;;;;8.77;4.47;;;;;;;30.72;51.93;99774.03;4957841;28;20053;-74
2021/08/17 06:26:28;;;;;;;6.13;4.05;;;;;;;30.53;52.43;99767.91;4957949;28;20027;-74
2021/08/17 06:28:53;;;;;;;6.45;3.42;;;;;;;31.05;51.56;99779.19;4958438;28;20031;-74
2021/08/17 06:31:23;;;;;;;5.57;3.33;;;;;;;30.34;53.47;99772.44;4958079;28;20447;-74
2021/08/17 06:33:54;;;;;;;6.88;3.83;;;;;;;30.18;54.08;99785.34;4975671;28;20031;-74
2021/08/17 06:36:20;;;;;;;8.07;3.55;;;;;;;30.57;53.15;99779.13;4957805;28;20031;-74
2021/08/17 06:38:46;;;;;;;6.82;3.42;;;;;;;31.23;51.10;99778.75;4957951;28;20234;-74
2021/08/17 06:41:11;;;;;;;8.50;3.50;;;;;;;31.40;50.19;99786.69;4957910;28;20075;-74
2021/08/17 06:43:37;;;;;;;8.82;3.60;;;;;;;31.12;49.93;99786.56;4958197;28;20043;-74
2021/08/17 06:46:03;;;;;;;9.60;2.97;;;;;;;30.83;50.80;99784.81;4957872;28;20065;-74
2021/08/17 06:48:29;;;;;;;6.32;3.03;;;;;;;30.97;50.17;99784.63;4957719;28;20117;-74
2021/08/17 06:50:55;;;;;;;9.80;3.28;;;;;;;31.29;49.95;99787.44;4957401;28;20437;-74
2021/08/17 06:53:20;;;;;;;7.13;3.25;;;;;;;31.60;48.90;99780.75;4957155;28;20026;-74
2021/08/17 06:55:46;;;;;;;7.38;3.45;;;;;;;31.88;48.30;99786.59;4957697;28;20043;-74
2021/08/17 06:58:13;;;;;;;5.47;2.78;;;;;;;31.69;48.46;99780.50;4957623;28;20030;-74
2021/08/17 07:00:43;;;;;;;2.90;2.67;;;;;;;31.88;48.27;99774.28;4973843;28;20033;-74
2021/08/17 07:03:09;;;;;;;4.88;2.65;;;;;;;31.40;49.62;99772.31;4941563;28;20035;-74
2021/08/17 07:05:40;;;;;;;7.32;3.22;;;;;;;30.84;50.40;99777.75;4957255;28;20042;-74
2021/08/17 07:08:06;;;;;;;6.93;2.67;;;;;;;31.17;50.21;99783.69;4974666;28;20442;-74
2021/08/17 07:10:33;;;;;;;4.03;2.33;;;;;;;30.89;50.47;99771.25;4957227;28;20027;-74
2021/08/17 07:12:59;;;;;;;3.63;2.15;;;;;;;30.62;51.43;99782.03;4957289;28;20501;-74
2021/08/17 07:15:25;;;;;;;6.35;2.75;;;;;;;30.63;50.96;99777.91;4957250;28;20050;-74
2021/08/17 07:17:53;;;;;;;6.35;3.17;;;;;;;30.92;49.67;99779.66;4957203;28;20073;-74
2021/08/17 07:20:19;;;;;;;5.38;2.95;;;;;;;31.08;50.24;99771.63;4974857;28;20035;-74
2021/08/17 07:22:45;;;;;;;6.38;2.90;;;;;;;31.28;49.10;99775.16;4957220;28;20027;-74
2021/08/17 07:25:11;;;;;;;7.65;3.15;;;;;;;31.64;49.06;99789.91;4956946;28;20121;-74
2021/08/17 07:27:41;;;;;;;6.50;2.80;;;;;;;31.50;48.89;99777.31;4957719;28;20058;-74
2021/08/17 07:30:11;;;;;;;3.95;2.90;;;;;;;31.18;49.56;99788.13;4957365;28;20113;-74
2021/08/17 07:32:41;;;;;;;3.83;2.60;;;;;;;31.29;49.38;99779.59;4957533;28;20026;-72
2021/08/17 07:35:09;;;;;;;5.45;2.60;;;;;;;31.71;47.18;99789.41;4956871;28;20037;-74
2021/08/17 07:37:37;;;;;;;8.73;3.45;;;;;;;32.00;46.21;99793.13;4957439;28;20435;-74
2021/08/17 07:40:06;;;;;;;5.80;3.10;;;;;;;32.63;45.18;99784.00;4973953;28;20035;-74
2021/08/17 07:42:32;;;;;;;4.38;2.92;;;;;;;32.64;45.83;99793.41;4956944;28;20509;-73
2021/08/17 07:45:02;;;;;;;4.85;2.55;;;;;;;32.96;44.49;99791.03;4956888;28;20033;-74
2021/08/17 07:47:28;;;;;;;6.30;2.83;;;;;;;32.41;46.18;99789.78;4956769;28;20027;-74
2021/08/17 07:49:53;;;;;;;6.60;3.03;;;;;;;32.08;46.02;99797.09;4956855;28;20251;-74
2021/08/17 07:52:19;;;;;;;6.28;2.83;;;;;;;31.69;46.92;99803.50;4956913;28;20109;-74
2021/08/17 07:54:44;;;;;;;7.90;3.28;;;;;;;32.07;46.12;99799.19;4956841;28;20133;-74
2021/08/17 07:57:10;;;;;;;5.72;2.90;;;;;;;33.15;43.82;99792.03;4956820;28;20030;-74
2021/08/17 07:59:35;;;;;;;4.68;3.30;;;;;;;34.40;40.91;99800.22;4956695;28;20035;-74
2021/08/17 08:02:02;;;;;;;7.43;3.30;;;;;;;33.83;41.82;99796.19;4956727;28;20026;-74
2021/08/17 08:04:27;;;;;;;10.15;3.20;;;;;;;33.60;42.26;99804.16;4956950;28;20030;-74
2021/08/17 08:06:53;;;;;;;6.28;2.83;;;;;;;33.87;42.44;99793.00;4956707;28;20512;-74
2021/08/17 08:09:19;;;;;;;3.67;2.83;;;;;;;32.77;44.75;99808.09;4956930;28;20109;-74
2021/08/17 08:11:47;;;;;;;3.60;2.60;;;;;;;32.56;45.47;99804.69;4957618;28;20498;-74
2021/08/17 08:14:13;;;;;;;7.00;3.28;;;;;;;32.60;44.88;99813.88;4960394;28;20442;-74
2021/08/17 08:16:39;;;;;;;7.53;3.53;;;;;;;31.77;47.32;99810.34;4960452;28;20057;-75
2021/08/17 08:19:06;;;;;;;8.68;3.85;;;;;;;31.05;49.07;99819.41;4960102;28;20537;-74
2021/08/17 08:21:32;;;;;;;5.57;2.92;;;;;;;31.49;48.39;99813.13;4960531;28;20041;-73
2021/08/17 08:23:59;;;;;;;7.13;3.28;;;;;;;31.94;47.76;99812.47;4960395;28;20034;-74
2021/08/17 08:26:25;;;;;;;6.15;3.33;;;;;;;32.29;46.55;99818.53;4944214;28;20069;-74
2021/08/17 08:28:51;;;;;;;5.30;3.33;;;;;;;32.62;43.48;99816.22;4959980;28;20062;-74
2021/08/17 08:31:16;;;;;;;4.35;2.88;;;;;;;33.03;42.32;99820.09;4960309;28;20066;-74
2021/08/17 08:33:42;;;;;;;7.25;3.53;;;;;;;33.33;41.26;99819.47;4959929;28;20389;-74
2021/08/17 08:36:09;;;;;;;7.95;3.63;;;;;;;33.24;41.17;99820.56;4960018;28;20041;-74
2021/08/17 08:38:35;;;;;;;10.70;4.07;;;;;;;33.62;39.73;99818.06;4959697;28;20026;-74
2021/08/17 08:41:01;;;;;;;9.40;3.30;;;;;;;33.31;40.24;99822.09;4959890;28;20395;-74
2021/08/17 08:43:26;;;;;;;8.02;3.22;;;;;;;33.24;40.04;99826.31;4960040;28;20081;-74
2021/08/17 08:45:52;;;;;;;5.93;3.20;;;;;;;33.03;40.64;99828.75;4959687;28;20434;-74
2021/08/17 08:48:22;;;;;;;6.97;2.85;;;;;;;34.02;38.83;99816.53;4959878;28;20027;-74
2021/08/17 08:50:49;;;;;;;6.88;3.17;;;;;;;34.87;37.08;99819.50;4960236;28;20031;-74
2021/08/17 08:53:16;;;;;;;7.32;3.83;;;;;;;34.66;38.10;99822.84;4959857;28;20500;-74
2021/08/17 08:55:44;;;;;;;8.40;3.47;;;;;;;35.12;36.06;99820.31;4976599;28;20027;-74
2021/08/17 08:58:10;;;;;;;4.68;3.08;;;;;;;35.78;35.30;99823.72;4959510;28;20543;-74
2021/08/17 09:00:35;;;;;;;8.57;3.55;;;;;;;35.82;34.99;99823.41;4959499;28;20135;-74
2021/08/17 09:03:01;;;;;;;7.20;3.28;;;;;;;36.63;33.70;99831.91;4959403;28;20129;-74
2021/08/17 09:05:26;;;;;;;6.88;2.67;;;;;;;36.69;33.54;99833.38;4959679;28;20077;-74
2021/08/17 09:07:54;;;;;;;5.18;2.63;;;;;;;37.51;32.05;99839.50;4959531;28;20078;-74
2021/08/17 09:10:25;;;;;;;7.78;2.88;;;;;;;37.72;31.66;99843.25;4959750;28;20031;-74
2021/08/17 09:12:57;;;;;;;3.55;2.90;;;;;;;37.45;31.89;99839.63;4959830;28;20434;-74
2021/08/17 09:15:34;;;;;;;6.32;2.80;;;;;;;38.33;30.43;99834.50;4959049;28;20065;-74
2021/08/17 09:18:05;;;;;;;5.53;2.53;;;;;;;38.24;30.04;99852.38;4959531;28;20039;-74
2021/08/17 09:20:37;;;;;;;7.03;3.28;;;;;;;37.91;30.37;99845.25;4959265;28;20041;-74
2021/08/17 09:23:34;;;;;;;5.65;2.80;;;;;;;37.64;30.74;99850.31;4958162;28;20082;-74
2021/08/17 09:26:20;;;;;;;6.38;2.65;;;;;;;38.97;28.88;99836.81;4976310;28;20030;-74
2021/08/17 09:28:54;;;;;;;8.18;3.17;;;;;;;39.12;28.92;99833.25;4958897;28;20065;-74
2021/08/17 09:31:40;;;;;;;5.22;3.17;;;;;;;37.99;30.82;99829.47;4959366;28;20529;-74
2021/08/17 09:34:10;;;;;;;3.95;2.60;;;;;;;36.91;31.04;99840.91;4958799;28;20037;-74
2021/08/17 09:36:37;;;;;;;6.07;3.20;;;;;;;36.97;31.66;99835.81;4959267;28;20056;-74
2021/08/17 09:39:04;;;;;;;6.55;2.33;;;;;;;38.47;29.07;99827.28;4959002;28;20023;-74
2021/08/17 09:41:32;;;;;;;4.65;2.47;;;;;;;37.90;29.88;99835.75;4958941;28;20031;-74
2021/08/17 09:44:03;;;;;;;4.32;2.40;;;;;;;38.24;28.72;99817.53;4958801;28;20042;-74
2021/08/17 09:46:33;;;;;;;6.45;3.08;;;;;;;38.53;28.60;99830.81;4958561;28;20041;-74
2021/08/17 09:49:21;;;;;;;4.15;2.63;;;;;;;38.81;28.61;99826.44;4958762;28;20486;-74
2021/08/17 09:51:47;;;;;;;4.53;2.90;;;;;;;38.42;29.72;99821.63;4958559;28;20100;-74
2021/08/17 09:54:17;;;;;;;5.25;2.45;;;;;;;38.73;29.10;99819.75;4976325;28;20105;-74
2021/08/17 09:56:53;;;;;;;4.88;2.92;;;;;;;38.74;27.63;99815.53;4943645;28;20129;-74
2021/08/17 09:59:19;;;;;;;5.10;2.28;;;;;;;38.84;28.16;99819.50;4958921;28;20045;-75
2021/08/17 10:01:46;;;;;;;7.80;3.00;;;;;;;39.11;27.91;99814.25;4958196;28;20039;-74
2021/08/17 10:04:14;;;;;;;4.32;2.10;;;;;;;39.45;27.09;99813.28;4958311;28;20027;-74
2021/08/17 10:06:40;;;;;;;6.25;2.50;;;;;;;38.31;28.15;99811.06;4958786;28;20055;-74
2021/08/17 10:09:06;;;;;;;5.45;2.08;;;;;;;38.56;27.09;99810.69;4958561;28;20030;-75
2021/08/17 10:11:34;;;;;;;7.07;2.40;;;;;;;37.43;28.28;99813.28;4958184;28;20417;-74
2021/08/17 10:13:59;;;;;;;4.28;2.40;;;;;;;37.87;26.00;99810.75;4957985;28;20031;-74
2021/08/17 10:16:25;;;;;;;4.15;2.30;;;;;;;38.55;25.63;99804.09;4957793;28;20062;-74
2021/08/17 10:18:52;;;;;;;3.80;2.03;;;;;;;37.96;27.89;99807.38;4958436;28;20038;-74
2021/08/17 10:21:19;;;;;;;3.13;1.88;;;;;;;38.51;26.29;99804.47;4958487;28;20035;-74
2021/08/17 10:23:45;;;;;;;6.47;2.17;;;;;;;37.92;27.10;99800.34;4957938;28;20062;-74
2021/08/17 10:26:32;;;;;;;4.72;2.85;;;;;;;37.97;27.50;99796.53;4958413;28;20085;-74
2021/08/17 10:28:58;;;;;;;2.65;2.00;;;;;;;38.22;27.01;99794.09;4958173;28;20023;-74
2021/08/17 10:31:31;;;;;;;3.38;2.28;;;;;;;38.47;25.95;99792.41;4958115;28;20507;-74
2021/08/17 10:34:12;;;;;;;3.15;1.88;;;;;;;38.73;25.91;99796.50;4974924;28;20079;-73
2021/08/17 10:36:46;;;;;;;4.30;1.70;;;;;;;38.72;26.37;99794.91;4958300;28;20454;-75
2021/08/17 10:39:18;;;;;;;2.42;1.63;;;;;;;38.61;25.35;99798.13;4957951;28;20466;-74
2021/08/17 10:41:49;;;;;;;4.70;2.38;;;;;;;37.79;26.10;99795.34;4957809;28;20470;-74
2021/08/17 10:44:23;;;;;;;2.53;1.47;;;;;;;38.61;24.28;99806.84;4957966;28;20019;-74
2021/08/17 10:46:55;;;;;;;2.60;1.98;;;;;;;38.15;26.47;99795.56;4942534;28;20356;-74
2021/08/17 10:49:47;;;;;;;2.28;1.90;;;;;;;38.58;25.73;99808.00;4958177;28;20434;-74
2021/08/17 10:52:34;;;;;;;2.47;2.20;;;;;;;38.86;26.16;99802.22;4958157;28;20081;-74
2021/08/17 10:55:23;;;;;;;2.72;2.20;;;;;;;38.85;28.23;99800.69;4958127;28;20423;-74
2021/08/17 10:57:50;;;;;;;4.00;1.90;;;;;;;38.83;28.98;99791.72;4974936;28;20089;-74
2021/08/17 11:00:44;;;;;;;6.70;3.50;;;;;;;38.41;29.70;99812.13;4957623;28;20129;-74
2021/08/17 11:03:10;;;;;;;3.55;2.10;;;;;;;38.33;29.88;99798.84;4957406;28;20113;-74
2021/08/17 11:05:53;;;;;;;2.45;2.00;;;;;;;36.85;35.20;99804.63;4957643;28;20046;-74
2021/08/17 11:08:30;;;;;;;4.68;2.03;;;;;;;36.79;33.28;99801.06;4957394;28;20023;-74
2021/08/17 11:11:00;;;;;;;7.85;2.05;;;;;;;35.98;34.20;99793.47;4957583;28;20031;-74
2021/08/17 11:13:26;;;;;;;4.72;1.70;;;;;;;36.17;34.99;99793.44;4957423;28;20037;-74
2021/08/17 11:16:07;;;;;;;3.15;2.35;;;;;;;36.74;34.86;99802.72;4974355;28;20051;-74
2021/08/17 11:18:49;;;;;;;5.47;2.50;;;;;;;36.66;34.92;99793.91;4958289;28;20098;-74
2021/08/17 11:21:28;;;;;;;;;;;;;;;36.68;35.56;99797.03;4957651;28;20038;-74
2021/08/17 11:24:23;;;;;;;3.72;2.40;;;;;;;36.27;35.78;99796.69;4957793;28;19917;-74
2021/08/17 11:26:53;;;;;;;2.90;2.22;;;;;;;36.27;36.11;99809.03;4957221;28;20038;-74
2021/08/17 11:29:27;;;;;;;5.25;2.47;;;;;;;36.42;36.33;99802.78;4957234;28;20086;-74
2021/08/17 11:31:54;;;;;;;2.58;2.38;;;;;;;36.61;35.26;99805.63;4974576;28;20027;-74
2021/08/17 11:34:28;;;;;;;3.95;2.33;;;;;;;36.70;35.85;99805.16;4957794;28;20027;-74
2021/08/17 11:36:59;;;;;;;4.18;2.70;;;;;;;36.57;33.99;99817.53;4957108;28;20022;-74